EGLC

London City Airport

London, United Kingdom
METAR EGLC 130050Z AUTO 10013KT 9999 NCD 03/01 Q1019
Observed Flight Rules
Dec-13 @ 00:50 UTC (49 minutes ago) Visual Flight Rules
Wind Visibility Clouds
100° at 13 knots 10,000+ meters
  • Clear skies
Temperatures Readings
Current 3°C / 37°F
Dewpoint 1°C / 34°F
Humidity 87%
Altimeter 30.09" Hg
Pressure 1019 hPa
Elevation 5
METAR EGLC 130050Z AUTO 10013KT 9999 NCD 03/01 Q1019
Observed Flight Rules
Dec-13 @ 00:50 UTC
(49 minutes ago)
VFR
Wind Visibility
100° at 13 knots 10,000+ meters
Clouds
  • Clear skies
Temperature Dewpoint
3°C / 37°F 1°C / 34°F
Humidity Altimeter Pressure
87% 30.09" Hg 1019 hPa